sensor_id;sensor_type;location;lat;lon;timestamp;temperature;humidity
23813;DHT22;12087;45.190;5.688;2022-10-23T00:01:29;17.00;99.90
23813;DHT22;12087;45.190;5.688;2022-10-23T00:06:51;17.10;99.90
23813;DHT22;12087;45.190;5.688;2022-10-23T00:12:13;17.10;99.90
23813;DHT22;12087;45.190;5.688;2022-10-23T00:17:37;16.90;99.90
23813;DHT22;12087;45.190;5.688;2022-10-23T00:22:59;16.80;99.90
23813;DHT22;12087;45.190;5.688;2022-10-23T00:28:21;16.60;99.90
23813;DHT22;12087;45.190;5.688;2022-10-23T00:33:45;16.50;99.90
23813;DHT22;12087;45.190;5.688;2022-10-23T00:39:07;16.50;99.90
23813;DHT22;12087;45.190;5.688;2022-10-23T00:45:09;16.40;99.90
23813;DHT22;12087;45.190;5.688;2022-10-23T00:50:33;16.20;99.90
23813;DHT22;12087;45.190;5.688;2022-10-23T00:55:55;16.20;99.90
23813;DHT22;12087;45.190;5.688;2022-10-23T01:01:21;16.10;99.90
23813;DHT22;12087;45.190;5.688;2022-10-23T01:06:52;16.10;99.90
23813;DHT22;12087;45.190;5.688;2022-10-23T01:12:24;16.00;99.90
23813;DHT22;12087;45.190;5.688;2022-10-23T01:17:52;15.90;99.90
23813;DHT22;12087;45.190;5.688;2022-10-23T01:23:47;15.90;99.90
23813;DHT22;12087;45.190;5.688;2022-10-23T01:29:19;16.00;99.90
23813;DHT22;12087;45.190;5.688;2022-10-23T01:34:47;16.10;99.90
23813;DHT22;12087;45.190;5.688;2022-10-23T01:40:18;16.10;99.90
23813;DHT22;12087;45.190;5.688;2022-10-23T01:45:46;16.20;99.90
23813;DHT22;12087;45.190;5.688;2022-10-23T01:51:11;16.00;99.90
23813;DHT22;12087;45.190;5.688;2022-10-23T01:56:38;15.90;99.90
23813;DHT22;12087;45.190;5.688;2022-10-23T02:02:04;15.90;99.90
23813;DHT22;12087;45.190;5.688;2022-10-23T02:07:27;15.80;99.90
23813;DHT22;12087;45.190;5.688;2022-10-23T02:12:57;15.80;99.90
23813;DHT22;12087;45.190;5.688;2022-10-23T02:18:32;15.90;99.90
23813;DHT22;12087;45.190;5.688;2022-10-23T02:24:01;16.00;99.90
23813;DHT22;12087;45.190;5.688;2022-10-23T02:29:27;16.00;99.90
23813;DHT22;12087;45.190;5.688;2022-10-23T02:34:52;16.00;99.90
23813;DHT22;12087;45.190;5.688;2022-10-23T02:40:14;16.00;99.90
23813;DHT22;12087;45.190;5.688;2022-10-23T02:45:41;16.00;99.90
23813;DHT22;12087;45.190;5.688;2022-10-23T02:51:13;15.90;99.90
23813;DHT22;12087;45.190;5.688;2022-10-23T02:56:39;15.80;99.90
23813;DHT22;12087;45.190;5.688;2022-10-23T03:02:08;15.80;99.90
23813;DHT22;12087;45.190;5.688;2022-10-23T03:07:34;15.80;99.90
23813;DHT22;12087;45.190;5.688;2022-10-23T03:12:57;15.80;99.90
23813;DHT22;12087;45.190;5.688;2022-10-23T03:18:19;15.80;99.90
23813;DHT22;12087;45.190;5.688;2022-10-23T03:23:42;15.80;99.90
23813;DHT22;12087;45.190;5.688;2022-10-23T03:29:05;15.80;99.90
23813;DHT22;12087;45.190;5.688;2022-10-23T03:34:27;15.80;99.90
23813;DHT22;12087;45.190;5.688;2022-10-23T03:39:51;15.70;99.90
23813;DHT22;12087;45.190;5.688;2022-10-23T03:45:13;15.60;99.90
23813;DHT22;12087;45.190;5.688;2022-10-23T03:50:35;15.60;99.90
23813;DHT22;12087;45.190;5.688;2022-10-23T03:55:59;15.70;99.90
23813;DHT22;12087;45.190;5.688;2022-10-23T04:01:21;15.70;99.90
23813;DHT22;12087;45.190;5.688;2022-10-23T04:06:43;15.70;99.90
23813;DHT22;12087;45.190;5.688;2022-10-23T04:12:07;15.70;99.90
23813;DHT22;12087;45.190;5.688;2022-10-23T04:17:29;15.70;99.90
23813;DHT22;12087;45.190;5.688;2022-10-23T04:22:52;15.70;99.90
23813;DHT22;12087;45.190;5.688;2022-10-23T04:28:15;15.70;99.90
23813;DHT22;12087;45.190;5.688;2022-10-23T04:33:38;15.60;99.90
23813;DHT22;12087;45.190;5.688;2022-10-23T04:39:00;15.60;99.90
23813;DHT22;12087;45.190;5.688;2022-10-23T04:44:23;15.50;99.90
23813;DHT22;12087;45.190;5.688;2022-10-23T04:49:46;15.40;99.90
23813;DHT22;12087;45.190;5.688;2022-10-23T04:55:08;15.30;99.90
23813;DHT22;12087;45.190;5.688;2022-10-23T05:00:32;15.10;99.90
23813;DHT22;12087;45.190;5.688;2022-10-23T05:05:55;15.00;99.90
23813;DHT22;12087;45.190;5.688;2022-10-23T05:11:17;15.00;99.90
23813;DHT22;12087;45.190;5.688;2022-10-23T05:16:45;15.00;99.90
23813;DHT22;12087;45.190;5.688;2022-10-23T05:22:09;15.00;99.90
23813;DHT22;12087;45.190;5.688;2022-10-23T05:27:32;15.00;99.90
23813;DHT22;12087;45.190;5.688;2022-10-23T05:32:56;14.90;99.90
23813;DHT22;12087;45.190;5.688;2022-10-23T05:38:18;14.90;99.90
23813;DHT22;12087;45.190;5.688;2022-10-23T05:43:40;14.90;99.90
23813;DHT22;12087;45.190;5.688;2022-10-23T05:49:04;14.80;99.90
23813;DHT22;12087;45.190;5.688;2022-10-23T05:54:26;14.90;99.90
23813;DHT22;12087;45.190;5.688;2022-10-23T05:59:48;14.80;99.90
23813;DHT22;12087;45.190;5.688;2022-10-23T06:05:12;14.80;99.90
23813;DHT22;12087;45.190;5.688;2022-10-23T06:10:34;14.80;99.90
23813;DHT22;12087;45.190;5.688;2022-10-23T06:15:56;14.80;99.90
23813;DHT22;12087;45.190;5.688;2022-10-23T06:21:20;14.80;99.90
23813;DHT22;12087;45.190;5.688;2022-10-23T06:26:42;14.90;99.90
23813;DHT22;12087;45.190;5.688;2022-10-23T06:32:05;14.90;99.90
23813;DHT22;12087;45.190;5.688;2022-10-23T06:37:29;14.90;99.90
23813;DHT22;12087;45.190;5.688;2022-10-23T06:42:51;14.90;99.90
23813;DHT22;12087;45.190;5.688;2022-10-23T06:48:14;14.90;99.90
23813;DHT22;12087;45.190;5.688;2022-10-23T06:53:38;14.90;99.90
23813;DHT22;12087;45.190;5.688;2022-10-23T06:59:00;15.00;99.90
23813;DHT22;12087;45.190;5.688;2022-10-23T07:04:22;15.00;99.90
23813;DHT22;12087;45.190;5.688;2022-10-23T07:09:46;15.10;99.90
23813;DHT22;12087;45.190;5.688;2022-10-23T07:15:09;15.20;99.90
23813;DHT22;12087;45.190;5.688;2022-10-23T07:20:31;15.20;99.90
23813;DHT22;12087;45.190;5.688;2022-10-23T07:25:55;15.30;99.90
23813;DHT22;12087;45.190;5.688;2022-10-23T07:31:17;15.40;99.90
23813;DHT22;12087;45.190;5.688;2022-10-23T07:36:39;15.50;99.90
23813;DHT22;12087;45.190;5.688;2022-10-23T07:42:03;15.60;99.90
23813;DHT22;12087;45.190;5.688;2022-10-23T07:47:25;15.60;99.90
23813;DHT22;12087;45.190;5.688;2022-10-23T07:52:48;15.60;99.90
23813;DHT22;12087;45.190;5.688;2022-10-23T07:58:12;15.60;99.90
23813;DHT22;12087;45.190;5.688;2022-10-23T08:03:34;15.50;99.90
23813;DHT22;12087;45.190;5.688;2022-10-23T08:08:56;15.50;99.90
23813;DHT22;12087;45.190;5.688;2022-10-23T08:14:20;15.60;99.90
23813;DHT22;12087;45.190;5.688;2022-10-23T08:19:42;15.60;99.90
23813;DHT22;12087;45.190;5.688;2022-10-23T08:25:07;15.70;99.90
23813;DHT22;12087;45.190;5.688;2022-10-23T08:30:31;15.80;99.90
23813;DHT22;12087;45.190;5.688;2022-10-23T08:35:53;15.80;99.90
23813;DHT22;12087;45.190;5.688;2022-10-23T08:41:23;15.80;99.90
23813;DHT22;12087;45.190;5.688;2022-10-23T08:46:51;15.90;99.90
23813;DHT22;12087;45.190;5.688;2022-10-23T08:52:23;15.80;99.90
23813;DHT22;12087;45.190;5.688;2022-10-23T08:57:52;15.80;99.90
23813;DHT22;12087;45.190;5.688;2022-10-23T09:03:17;15.70;99.90
23813;DHT22;12087;45.190;5.688;2022-10-23T09:08:49;15.70;99.90
23813;DHT22;12087;45.190;5.688;2022-10-23T09:14:47;15.70;99.90
23813;DHT22;12087;45.190;5.688;2022-10-23T09:20:20;15.70;99.90
23813;DHT22;12087;45.190;5.688;2022-10-23T09:25:45;15.70;99.90
23813;DHT22;12087;45.190;5.688;2022-10-23T09:55:23;16.10;99.90
23813;DHT22;12087;45.190;5.688;2022-10-23T10:00:46;16.20;99.90
23813;DHT22;12087;45.190;5.688;2022-10-23T10:06:21;16.20;99.90
23813;DHT22;12087;45.190;5.688;2022-10-23T10:11:49;16.30;99.90
23813;DHT22;12087;45.190;5.688;2022-10-23T10:17:22;16.40;99.90
23813;DHT22;12087;45.190;5.688;2022-10-23T10:22:54;16.50;99.90
23813;DHT22;12087;45.190;5.688;2022-10-23T10:28:55;16.60;99.90
23813;DHT22;12087;45.190;5.688;2022-10-23T10:34:38;16.60;99.90
23813;DHT22;12087;45.190;5.688;2022-10-23T10:40:04;16.70;99.90
23813;DHT22;12087;45.190;5.688;2022-10-23T10:45:33;16.90;99.90
23813;DHT22;12087;45.190;5.688;2022-10-23T10:51:02;17.00;99.90
23813;DHT22;12087;45.190;5.688;2022-10-23T10:56:30;17.20;99.90
23813;DHT22;12087;45.190;5.688;2022-10-23T11:01:58;17.30;99.90
23813;DHT22;12087;45.190;5.688;2022-10-23T11:07:25;17.40;99.90
23813;DHT22;12087;45.190;5.688;2022-10-23T11:12:50;17.50;99.90
23813;DHT22;12087;45.190;5.688;2022-10-23T11:18:19;17.60;99.90
23813;DHT22;12087;45.190;5.688;2022-10-23T11:24:12;17.70;99.90
23813;DHT22;12087;45.190;5.688;2022-10-23T11:35:47;18.00;99.90
23813;DHT22;12087;45.190;5.688;2022-10-23T11:41:22;18.10;99.90
23813;DHT22;12087;45.190;5.688;2022-10-23T11:46:45;18.10;99.90
23813;DHT22;12087;45.190;5.688;2022-10-23T11:52:22;18.20;99.90
23813;DHT22;12087;45.190;5.688;2022-10-23T11:58:14;18.40;99.90
23813;DHT22;12087;45.190;5.688;2022-10-23T12:03:46;18.80;99.90
23813;DHT22;12087;45.190;5.688;2022-10-23T12:09:24;19.40;99.90
23813;DHT22;12087;45.190;5.688;2022-10-23T12:14:48;20.60;99.90
23813;DHT22;12087;45.190;5.688;2022-10-23T12:20:27;21.50;99.90
23813;DHT22;12087;45.190;5.688;2022-10-23T12:25:57;22.10;99.90
23813;DHT22;12087;45.190;5.688;2022-10-23T12:31:29;22.60;99.90
23813;DHT22;12087;45.190;5.688;2022-10-23T12:37:11;22.70;98.40
23813;DHT22;12087;45.190;5.688;2022-10-23T12:42:40;22.70;99.90
23813;DHT22;12087;45.190;5.688;2022-10-23T12:48:17;22.60;94.60
23813;DHT22;12087;45.190;5.688;2022-10-23T12:53:40;22.60;92.30
23813;DHT22;12087;45.190;5.688;2022-10-23T12:59:12;23.00;90.60
23813;DHT22;12087;45.190;5.688;2022-10-23T13:04:38;23.00;90.10
23813;DHT22;12087;45.190;5.688;2022-10-23T13:10:03;23.10;89.10
23813;DHT22;12087;45.190;5.688;2022-10-23T13:15:36;23.20;86.40
23813;DHT22;12087;45.190;5.688;2022-10-23T13:21:02;23.30;88.40
23813;DHT22;12087;45.190;5.688;2022-10-23T13:26:30;23.40;86.20
23813;DHT22;12087;45.190;5.688;2022-10-23T13:31:54;23.60;83.60
23813;DHT22;12087;45.190;5.688;2022-10-23T13:37:23;23.80;90.80
23813;DHT22;12087;45.190;5.688;2022-10-23T13:42:47;24.10;88.30
23813;DHT22;12087;45.190;5.688;2022-10-23T13:48:12;24.30;82.70
23813;DHT22;12087;45.190;5.688;2022-10-23T13:53:35;24.30;84.00
23813;DHT22;12087;45.190;5.688;2022-10-23T13:58:58;24.40;81.10
23813;DHT22;12087;45.190;5.688;2022-10-23T14:04:22;24.30;84.50
23813;DHT22;12087;45.190;5.688;2022-10-23T14:09:44;24.30;83.50
23813;DHT22;12087;45.190;5.688;2022-10-23T14:15:08;24.40;86.00
23813;DHT22;12087;45.190;5.688;2022-10-23T14:20:32;24.70;81.00
23813;DHT22;12087;45.190;5.688;2022-10-23T14:25:59;24.80;79.60
23813;DHT22;12087;45.190;5.688;2022-10-23T14:31:22;24.90;81.60
23813;DHT22;12087;45.190;5.688;2022-10-23T14:36:46;24.80;77.80
23813;DHT22;12087;45.190;5.688;2022-10-23T14:42:08;24.80;78.20
23813;DHT22;12087;45.190;5.688;2022-10-23T14:47:31;24.70;76.30
23813;DHT22;12087;45.190;5.688;2022-10-23T14:52:55;24.60;79.00
23813;DHT22;12087;45.190;5.688;2022-10-23T14:58:17;24.50;77.10
23813;DHT22;12087;45.190;5.688;2022-10-23T15:03:43;24.40;80.50
23813;DHT22;12087;45.190;5.688;2022-10-23T15:09:06;24.40;75.40
23813;DHT22;12087;45.190;5.688;2022-10-23T15:14:28;24.40;77.40
23813;DHT22;12087;45.190;5.688;2022-10-23T15:19:51;24.40;82.00
23813;DHT22;12087;45.190;5.688;2022-10-23T15:25:15;24.00;93.10
23813;DHT22;12087;45.190;5.688;2022-10-23T15:30:37;23.60;96.10
23813;DHT22;12087;45.190;5.688;2022-10-23T15:36:03;23.20;99.40
23813;DHT22;12087;45.190;5.688;2022-10-23T15:41:28;23.00;99.90
23813;DHT22;12087;45.190;5.688;2022-10-23T15:46:50;22.70;99.90
23813;DHT22;12087;45.190;5.688;2022-10-23T15:52:13;22.50;99.90
23813;DHT22;12087;45.190;5.688;2022-10-23T15:57:36;22.40;99.90
23813;DHT22;12087;45.190;5.688;2022-10-23T16:02:58;22.30;99.90
23813;DHT22;12087;45.190;5.688;2022-10-23T16:08:21;22.20;99.90
23813;DHT22;12087;45.190;5.688;2022-10-23T16:13:45;22.10;99.90
23813;DHT22;12087;45.190;5.688;2022-10-23T16:19:09;22.00;99.90
23813;DHT22;12087;45.190;5.688;2022-10-23T16:24:32;21.90;99.90
23813;DHT22;12087;45.190;5.688;2022-10-23T16:29:55;21.90;99.90
23813;DHT22;12087;45.190;5.688;2022-10-23T16:35:18;21.80;99.90
23813;DHT22;12087;45.190;5.688;2022-10-23T16:40:40;21.70;99.90
23813;DHT22;12087;45.190;5.688;2022-10-23T16:46:06;21.70;99.90
23813;DHT22;12087;45.190;5.688;2022-10-23T16:51:28;21.70;99.90
23813;DHT22;12087;45.190;5.688;2022-10-23T16:56:51;21.60;99.90
23813;DHT22;12087;45.190;5.688;2022-10-23T17:02:15;21.60;99.90
23813;DHT22;12087;45.190;5.688;2022-10-23T17:07:37;21.60;99.90
23813;DHT22;12087;45.190;5.688;2022-10-23T17:12:59;21.60;99.90
23813;DHT22;12087;45.190;5.688;2022-10-23T17:18:23;21.60;99.90
23813;DHT22;12087;45.190;5.688;2022-10-23T17:23:45;21.70;99.90
23813;DHT22;12087;45.190;5.688;2022-10-23T17:29:09;21.70;99.90
23813;DHT22;12087;45.190;5.688;2022-10-23T17:34:34;21.60;99.90
23813;DHT22;12087;45.190;5.688;2022-10-23T17:39:57;21.60;99.90
23813;DHT22;12087;45.190;5.688;2022-10-23T17:45:22;21.60;99.90
23813;DHT22;12087;45.190;5.688;2022-10-23T17:50:45;21.60;99.90
23813;DHT22;12087;45.190;5.688;2022-10-23T17:56:09;21.60;99.90
23813;DHT22;12087;45.190;5.688;2022-10-23T18:01:32;21.50;99.90
23813;DHT22;12087;45.190;5.688;2022-10-23T18:06:56;21.50;99.90
23813;DHT22;12087;45.190;5.688;2022-10-23T18:12:18;21.40;99.90
23813;DHT22;12087;45.190;5.688;2022-10-23T18:17:40;21.30;99.90
23813;DHT22;12087;45.190;5.688;2022-10-23T18:23:06;21.30;99.90
23813;DHT22;12087;45.190;5.688;2022-10-23T18:28:28;21.20;99.90
23813;DHT22;12087;45.190;5.688;2022-10-23T18:33:54;21.20;99.90
23813;DHT22;12087;45.190;5.688;2022-10-23T18:39:20;21.20;99.90
23813;DHT22;12087;45.190;5.688;2022-10-23T18:44:43;21.20;99.90
23813;DHT22;12087;45.190;5.688;2022-10-23T18:50:09;21.20;99.90
23813;DHT22;12087;45.190;5.688;2022-10-23T18:55:33;21.20;99.90
23813;DHT22;12087;45.190;5.688;2022-10-23T19:00:55;21.20;99.90
23813;DHT22;12087;45.190;5.688;2022-10-23T19:06:19;21.10;99.90
23813;DHT22;12087;45.190;5.688;2022-10-23T19:11:44;21.10;99.90
23813;DHT22;12087;45.190;5.688;2022-10-23T19:17:08;21.00;99.90
23813;DHT22;12087;45.190;5.688;2022-10-23T19:22:34;21.00;99.90
23813;DHT22;12087;45.190;5.688;2022-10-23T19:27:59;20.90;99.90
23813;DHT22;12087;45.190;5.688;2022-10-23T19:33:23;20.90;99.90
23813;DHT22;12087;45.190;5.688;2022-10-23T19:38:45;21.10;99.90
23813;DHT22;12087;45.190;5.688;2022-10-23T19:44:24;21.30;99.90
23813;DHT22;12087;45.190;5.688;2022-10-23T19:49:50;22.00;99.90
23813;DHT22;12087;45.190;5.688;2022-10-23T20:01:24;22.40;99.90
23813;DHT22;12087;45.190;5.688;2022-10-23T20:06:50;22.50;99.90
23813;DHT22;12087;45.190;5.688;2022-10-23T20:12:13;22.40;99.90
23813;DHT22;12087;45.190;5.688;2022-10-23T20:17:53;22.40;99.90
23813;DHT22;12087;45.190;5.688;2022-10-23T20:23:17;22.30;99.90
23813;DHT22;12087;45.190;5.688;2022-10-23T20:34:59;22.20;99.90
23813;DHT22;12087;45.190;5.688;2022-10-23T20:40:31;22.20;99.50
23813;DHT22;12087;45.190;5.688;2022-10-23T20:47:05;22.20;99.20
23813;DHT22;12087;45.190;5.688;2022-10-23T20:52:10;22.20;99.90
23813;DHT22;12087;45.190;5.688;2022-10-23T20:58:10;22.20;99.90
23813;DHT22;12087;45.190;5.688;2022-10-23T21:03:49;22.20;99.20
23813;DHT22;12087;45.190;5.688;2022-10-23T21:41:21;22.60;97.10
23813;DHT22;12087;45.190;5.688;2022-10-23T21:47:01;22.80;94.40
23813;DHT22;12087;45.190;5.688;2022-10-23T21:52:25;23.20;91.70
23813;DHT22;12087;45.190;5.688;2022-10-23T21:57:48;23.10;92.50
23813;DHT22;12087;45.190;5.688;2022-10-23T22:03:10;23.20;92.40
23813;DHT22;12087;45.190;5.688;2022-10-23T22:08:33;23.00;91.70
23813;DHT22;12087;45.190;5.688;2022-10-23T22:13:57;23.10;91.80
23813;DHT22;12087;45.190;5.688;2022-10-23T22:19:21;23.20;92.00
23813;DHT22;12087;45.190;5.688;2022-10-23T22:24:43;23.30;91.80
23813;DHT22;12087;45.190;5.688;2022-10-23T22:30:08;23.30;90.30
23813;DHT22;12087;45.190;5.688;2022-10-23T22:35:30;23.30;90.70
23813;DHT22;12087;45.190;5.688;2022-10-23T22:40:52;23.50;89.40
23813;DHT22;12087;45.190;5.688;2022-10-23T22:46:17;23.50;87.00
23813;DHT22;12087;45.190;5.688;2022-10-23T22:51:39;23.50;84.20
23813;DHT22;12087;45.190;5.688;2022-10-23T22:57:01;23.30;85.40
23813;DHT22;12087;45.190;5.688;2022-10-23T23:02:25;23.00;97.60
23813;DHT22;12087;45.190;5.688;2022-10-23T23:07:47;22.60;99.90
23813;DHT22;12087;45.190;5.688;2022-10-23T23:13:09;22.20;99.90
23813;DHT22;12087;45.190;5.688;2022-10-23T23:18:34;22.00;99.90
23813;DHT22;12087;45.190;5.688;2022-10-23T23:23:56;21.70;99.90
23813;DHT22;12087;45.190;5.688;2022-10-23T23:29:19;21.50;99.90
23813;DHT22;12087;45.190;5.688;2022-10-23T23:34:42;21.50;99.90
23813;DHT22;12087;45.190;5.688;2022-10-23T23:40:06;21.40;99.90
23813;DHT22;12087;45.190;5.688;2022-10-23T23:45:28;21.30;99.90
23813;DHT22;12087;45.190;5.688;2022-10-23T23:50:52;21.20;99.90
23813;DHT22;12087;45.190;5.688;2022-10-23T23:56:14;21.10;99.90
